Time;durP1;ratioP1;P1;durP2;ratioP2;P2;SDS_P1;SDS_P2;PMS_P1;PMS_P2;Temp;Humidity;BMP_temperature;BMP_pressure;BME280_temperature;BME280_humidity;BME280_pressure;Samples;Min_cycle;Max_cycle;Signal;HPM_P1;HPM_P2
2023/03/12 00:00:22;;;;;;;5.57;2.85;;;1.40;1.00;;;;;;5134618;27;20231;-79
2023/03/12 00:02:48;;;;;;;4.63;2.70;;;1.40;1.00;;;;;;5134911;27;20235;-79
2023/03/12 00:05:15;;;;;;;5.38;2.83;;;1.50;1.00;;;;;;5140439;27;20317;-80
2023/03/12 00:07:43;;;;;;;4.85;2.63;;;1.40;1.00;;;;;;5141647;27;20289;-79
2023/03/12 00:10:12;;;;;;;7.68;3.10;;;1.40;1.00;;;;;;5134758;27;20238;-80
2023/03/12 00:12:39;;;;;;;9.15;2.92;;;1.40;1.00;;;;;;5138380;27;20268;-80
2023/03/12 00:15:07;;;;;;;5.25;2.33;;;1.40;1.00;;;;;;5138437;27;22077;-80
2023/03/12 00:17:34;;;;;;;4.25;3.15;;;1.50;1.00;;;;;;5142748;27;20617;-80
2023/03/12 00:20:02;;;;;;;3.45;2.70;;;1.50;1.00;;;;;;5140471;27;21098;-80
2023/03/12 00:22:29;;;;;;;4.95;2.90;;;1.50;1.00;;;;;;5137351;27;20237;-80
2023/03/12 00:24:57;;;;;;;5.57;2.55;;;1.40;1.00;;;;;;5137829;27;20325;-80
2023/03/12 00:27:26;;;;;;;5.07;2.67;;;1.40;1.00;;;;;;5137749;27;20282;-80
2023/03/12 00:29:54;;;;;;;6.75;2.45;;;1.40;1.00;;;;;;5134894;27;20885;-80
2023/03/12 00:32:21;;;;;;;4.85;2.50;;;1.40;1.00;;;;;;5135073;27;20944;-80
2023/03/12 00:34:51;;;;;;;4.68;2.45;;;1.40;1.00;;;;;;5138991;27;20243;-80
2023/03/12 00:37:18;;;;;;;6.80;2.97;;;1.40;1.00;;;;;;5142140;27;20326;-80
2023/03/12 00:39:45;;;;;;;5.13;3.35;;;1.50;1.00;;;;;;5137139;27;20231;-80
2023/03/12 00:42:12;;;;;;;3.42;2.67;;;1.50;1.00;;;;;;5139290;27;20287;-80
2023/03/12 00:44:41;;;;;;;5.30;2.90;;;1.50;1.00;;;;;;5137601;27;20237;-80
2023/03/12 00:47:08;;;;;;;4.55;2.50;;;1.50;1.00;;;;;;5140329;27;20230;-80
2023/03/12 00:49:35;;;;;;;5.90;3.15;;;1.50;1.00;;;;;;5138845;27;20238;-80
2023/03/12 00:52:02;;;;;;;5.28;2.90;;;1.50;1.00;;;;;;5136819;27;20238;-80
2023/03/12 00:54:29;;;;;;;6.82;3.15;;;1.50;1.00;;;;;;5137888;27;20335;-82
2023/03/12 00:56:56;;;;;;;5.32;2.90;;;1.40;1.00;;;;;;5137575;27;20304;-80
2023/03/12 00:59:23;;;;;;;5.93;3.13;;;1.50;1.00;;;;;;5139723;27;20238;-80
2023/03/12 01:01:51;;;;;;;4.07;2.35;;;1.50;1.00;;;;;;5136175;27;20241;-80
2023/03/12 01:04:18;;;;;;;6.03;2.72;;;1.50;1.00;;;;;;5137457;27;20234;-80
2023/03/12 01:06:45;;;;;;;3.80;2.40;;;1.60;1.00;;;;;;5141740;27;20808;-80
2023/03/12 01:09:12;;;;;;;4.57;2.70;;;1.70;1.00;;;;;;5143477;27;20306;-80
2023/03/12 01:11:40;;;;;;;6.82;2.40;;;1.80;1.00;;;;;;5141247;27;20325;-80
2023/03/12 01:14:08;;;;;;;5.75;2.65;;;1.90;1.00;;;;;;5137567;27;20684;-79
2023/03/12 01:16:35;;;;;;;6.30;2.75;;;2.00;1.00;;;;;;5136922;27;20307;-80
2023/03/12 01:19:04;;;;;;;5.43;3.13;;;2.00;1.00;;;;;;5137534;27;20258;-80
2023/03/12 01:21:31;;;;;;;4.25;2.55;;;2.10;1.00;;;;;;5138325;27;20333;-80
2023/03/12 01:23:59;;;;;;;4.82;2.85;;;2.10;1.00;;;;;;5140481;27;20230;-80
2023/03/12 01:26:26;;;;;;;3.30;2.50;;;2.10;1.00;;;;;;5137877;27;20234;-80
2023/03/12 01:28:53;;;;;;;4.20;2.78;;;2.20;1.00;;;;;;5133089;27;20234;-79
2023/03/12 01:31:20;;;;;;;10.60;3.75;;;2.20;1.00;;;;;;5139284;27;20244;-80
2023/03/12 01:33:49;;;;;;;6.15;2.55;;;2.30;1.00;;;;;;5136034;27;21087;-80
2023/03/12 01:36:20;;;;;;;6.60;2.70;;;2.30;1.00;;;;;;5136076;27;20320;-80
2023/03/12 01:38:47;;;;;;;4.70;2.88;;;2.30;1.00;;;;;;5138038;27;21095;-80
2023/03/12 01:41:14;;;;;;;5.50;2.78;;;2.30;1.00;;;;;;5138064;27;20239;-80
2023/03/12 01:43:41;;;;;;;5.20;2.55;;;2.20;1.00;;;;;;5141619;27;20233;-80
2023/03/12 01:46:24;;;;;;;4.70;3.05;;;2.10;1.00;;;;;;5140160;27;20268;-80
2023/03/12 01:48:55;;;;;;;6.43;2.58;;;2.10;1.00;;;;;;5139083;27;20238;-80
2023/03/12 01:51:26;;;;;;;5.47;2.60;;;2.10;1.00;;;;;;5137458;27;20322;-80
2023/03/12 01:53:57;;;;;;;5.35;2.72;;;2.20;1.00;;;;;;5138153;27;20919;-80
2023/03/12 01:56:27;;;;;;;9.43;2.53;;;2.20;1.00;;;;;;5136057;27;20234;-80
2023/03/12 01:58:58;;;;;;;4.82;2.92;;;2.30;1.00;;;;;;5134882;27;20334;-80
2023/03/12 02:01:25;;;;;;;5.68;2.50;;;2.30;1.00;;;;;;5138634;27;20321;-80
2023/03/12 02:03:55;;;;;;;5.68;2.83;;;2.30;1.00;;;;;;5137152;27;20265;-80
2023/03/12 02:06:29;;;;;;;6.35;2.88;;;2.40;1.00;;;;;;5135610;27;20227;-80
2023/03/12 02:08:58;;;;;;;2.85;2.22;;;2.40;1.00;;;;;;5131989;27;20284;-79
2023/03/12 02:11:25;;;;;;;5.25;2.08;;;2.40;1.00;;;;;;5143395;27;20329;-80
2023/03/12 02:13:52;;;;;;;6.10;2.65;;;2.50;1.00;;;;;;5134557;27;20238;-80
2023/03/12 02:16:19;;;;;;;6.70;3.35;;;2.50;1.00;;;;;;5137374;27;20295;-80
2023/03/12 02:18:48;;;;;;;3.58;2.22;;;2.50;1.00;;;;;;5140783;27;21064;-80
2023/03/12 02:21:20;;;;;;;5.95;2.55;;;2.60;1.00;;;;;;5143944;27;20238;-79
2023/03/12 02:23:56;;;;;;;6.50;2.63;;;2.70;1.00;;;;;;5136838;27;20280;-79
2023/03/12 02:26:29;;;;;;;5.45;3.05;;;2.60;1.00;;;;;;5138088;27;20244;-80
2023/03/12 02:28:59;;;;;;;7.15;2.90;;;2.60;1.00;;;;;;5140389;27;20238;-79
2023/03/12 02:31:31;;;;;;;4.75;2.22;;;2.50;1.00;;;;;;5136252;27;20234;-80
2023/03/12 02:33:59;;;;;;;3.67;2.70;;;2.50;1.00;;;;;;5141161;27;20717;-79
2023/03/12 02:36:26;;;;;;;8.88;3.65;;;2.50;1.00;;;;;;5141084;27;20317;-79
2023/03/12 02:38:55;;;;;;;4.85;2.83;;;2.50;1.00;;;;;;5140913;27;20254;-79
2023/03/12 02:41:28;;;;;;;5.10;2.85;;;2.40;1.00;;;;;;5140684;27;21158;-81
2023/03/12 02:44:02;;;;;;;4.25;2.85;;;2.40;1.00;;;;;;5141171;27;20283;-79
2023/03/12 02:46:32;;;;;;;4.32;2.45;;;2.30;1.00;;;;;;5144883;27;20234;-80
2023/03/12 02:48:59;;;;;;;9.93;3.03;;;2.30;1.00;;;;;;5140575;27;20333;-80
2023/03/12 02:51:26;;;;;;;7.13;3.17;;;2.20;1.00;;;;;;5139101;27;20304;-78
2023/03/12 02:53:53;;;;;;;4.78;3.20;;;2.10;1.00;;;;;;5145421;27;20291;-79
2023/03/12 02:56:22;;;;;;;4.75;2.70;;;2.00;1.00;;;;;;5143488;27;20241;-79
2023/03/12 02:58:50;;;;;;;6.40;3.85;;;1.90;1.00;;;;;;5141446;27;20233;-80
2023/03/12 03:01:19;;;;;;;4.93;3.28;;;1.80;1.00;;;;;;5142250;27;20254;-80
2023/03/12 03:03:46;;;;;;;4.55;2.80;;;1.80;1.00;;;;;;5140597;27;20312;-78
2023/03/12 03:06:14;;;;;;;4.32;2.90;;;1.70;1.00;;;;;;5136851;27;20351;-79
2023/03/12 03:08:41;;;;;;;4.68;2.50;;;1.60;1.00;;;;;;5140983;27;20349;-79
2023/03/12 03:11:09;;;;;;;4.90;3.05;;;1.50;1.00;;;;;;5140724;27;20249;-79
2023/03/12 03:13:36;;;;;;;4.38;2.60;;;1.50;1.00;;;;;;5142220;27;20230;-80
2023/03/12 03:16:05;;;;;;;3.83;2.90;;;1.40;1.00;;;;;;5138393;27;20262;-79
2023/03/12 03:18:33;;;;;;;4.65;3.20;;;1.40;1.00;;;;;;5140328;27;20343;-79
2023/03/12 03:21:01;;;;;;;3.55;2.78;;;1.40;1.00;;;;;;5138493;27;20797;-80
2023/03/12 03:23:29;;;;;;;5.00;2.97;;;1.30;1.00;;;;;;5142458;27;20354;-79
2023/03/12 03:25:56;;;;;;;4.43;2.58;;;1.30;1.00;;;;;;5142858;27;20291;-80
2023/03/12 03:28:24;;;;;;;6.55;3.30;;;1.30;1.00;;;;;;5141049;27;20234;-80
2023/03/12 03:30:53;;;;;;;6.10;4.00;;;1.20;1.00;;;;;;5134249;27;20233;-80
2023/03/12 03:33:22;;;;;;;6.28;2.88;;;1.20;1.00;;;;;;5139507;27;20235;-80
2023/03/12 03:35:49;;;;;;;5.40;3.38;;;1.10;1.00;;;;;;5141001;27;20234;-80
2023/03/12 03:38:16;;;;;;;8.10;3.63;;;1.10;1.00;;;;;;5136006;27;20234;-80
2023/03/12 03:40:43;;;;;;;3.30;2.38;;;1.10;1.00;;;;;;5138683;27;20241;-80
2023/03/12 03:43:12;;;;;;;6.10;3.10;;;1.10;1.00;;;;;;5140572;27;20235;-79
2023/03/12 03:45:39;;;;;;;8.15;3.28;;;1.10;1.00;;;;;;5137757;27;20238;-80
2023/03/12 03:48:06;;;;;;;3.60;2.45;;;1.10;1.00;;;;;;5138499;27;20318;-80
2023/03/12 03:50:36;;;;;;;6.25;3.25;;;1.10;1.00;;;;;;5142428;27;20742;-81
2023/03/12 03:53:04;;;;;;;5.95;3.10;;;1.00;1.00;;;;;;5138362;27;20325;-81
2023/03/12 03:55:31;;;;;;;5.75;3.20;;;1.00;1.00;;;;;;5142609;27;20230;-81
2023/03/12 03:57:58;;;;;;;4.60;2.90;;;1.00;1.00;;;;;;5141780;27;20234;-80
2023/03/12 04:00:25;;;;;;;6.10;3.10;;;0.90;1.00;;;;;;5134663;27;20710;-81
2023/03/12 04:02:52;;;;;;;9.13;2.60;;;0.90;1.00;;;;;;5136511;27;20713;-81
2023/03/12 04:05:19;;;;;;;7.35;3.78;;;0.90;1.00;;;;;;5142893;27;20245;-81
2023/03/12 04:07:47;;;;;;;6.65;3.30;;;0.90;1.00;;;;;;5137103;27;20242;-80
2023/03/12 04:10:15;;;;;;;5.35;3.60;;;0.90;1.00;;;;;;5139519;27;20238;-81
2023/03/12 04:12:42;;;;;;;9.15;3.20;;;0.90;1.00;;;;;;5137386;27;20280;-80
2023/03/12 04:15:09;;;;;;;4.55;3.30;;;0.80;1.00;;;;;;5140475;27;20230;-80
2023/03/12 04:17:36;;;;;;;4.78;3.20;;;0.80;1.00;;;;;;5138074;27;20318;-81
2023/03/12 04:20:06;;;;;;;5.65;3.40;;;0.80;1.00;;;;;;5140568;27;20237;-81
2023/03/12 04:22:33;;;;;;;5.95;3.55;;;0.80;1.00;;;;;;5137484;27;20261;-81
2023/03/12 04:25:01;;;;;;;6.05;3.80;;;0.80;1.00;;;;;;5137531;27;20753;-81
2023/03/12 04:27:28;;;;;;;3.85;3.03;;;0.80;1.00;;;;;;5140603;27;20234;-81
2023/03/12 04:29:55;;;;;;;9.32;3.55;;;0.80;1.00;;;;;;5139842;27;20334;-81
2023/03/12 04:32:22;;;;;;;7.10;3.58;;;0.80;1.00;;;;;;5142979;27;20262;-80
2023/03/12 04:34:49;;;;;;;5.40;4.03;;;0.80;1.00;;;;;;5140228;27;20924;-81
2023/03/12 04:37:16;;;;;;;4.93;4.03;;;0.80;1.00;;;;;;5141891;27;20238;-80
2023/03/12 04:39:44;;;;;;;4.80;3.45;;;0.70;1.00;;;;;;5145131;27;20234;-81
2023/03/12 04:42:12;;;;;;;6.15;4.53;;;0.70;1.00;;;;;;5141843;27;20801;-81
2023/03/12 04:44:40;;;;;;;9.05;5.20;;;0.70;1.00;;;;;;5139095;27;20262;-81
2023/03/12 04:47:07;;;;;;;6.95;5.63;;;0.70;1.00;;;;;;5135637;27;20239;-81
2023/03/12 04:49:34;;;;;;;7.03;5.40;;;0.70;1.00;;;;;;5138046;27;20235;-81
2023/03/12 04:52:01;;;;;;;4.85;4.10;;;0.70;1.00;;;;;;5138256;27;20245;-81
2023/03/12 04:54:30;;;;;;;9.65;5.45;;;0.70;1.00;;;;;;5137246;27;20234;-81
2023/03/12 04:56:57;;;;;;;6.22;5.38;;;0.70;1.00;;;;;;5133765;27;20286;-81
2023/03/12 04:59:25;;;;;;;6.07;4.75;;;0.70;1.00;;;;;;5139959;27;20320;-81
2023/03/12 05:01:53;;;;;;;7.40;4.97;;;0.70;1.00;;;;;;5134997;27;20246;-81
2023/03/12 05:04:20;;;;;;;9.15;6.00;;;0.70;1.00;;;;;;5132397;27;20246;-81
2023/03/12 05:06:49;;;;;;;7.40;5.35;;;0.70;1.00;;;;;;5137404;27;20231;-81
2023/03/12 05:09:16;;;;;;;8.27;5.43;;;0.60;1.00;;;;;;5141449;27;20230;-81
2023/03/12 05:11:43;;;;;;;7.70;5.20;;;0.60;1.00;;;;;;5136763;27;20237;-81
2023/03/12 05:14:12;;;;;;;6.18;5.30;;;0.60;1.00;;;;;;5138734;27;20967;-81
2023/03/12 05:16:40;;;;;;;10.95;6.30;;;0.60;1.00;;;;;;5138037;27;21123;-81
2023/03/12 05:19:07;;;;;;;6.88;5.65;;;0.60;1.00;;;;;;5137436;27;20323;-81
2023/03/12 05:21:34;;;;;;;11.35;6.65;;;0.60;1.00;;;;;;5137130;27;20701;-81
2023/03/12 05:24:01;;;;;;;8.98;5.38;;;0.60;1.00;;;;;;5137707;27;20283;-81
2023/03/12 05:26:31;;;;;;;7.35;5.43;;;0.60;1.00;;;;;;5138944;27;20235;-81
2023/03/12 05:28:59;;;;;;;9.35;5.60;;;0.60;1.00;;;;;;5142672;27;20725;-81
2023/03/12 05:31:26;;;;;;;6.63;5.15;;;0.60;1.00;;;;;;5139035;27;20276;-81
2023/03/12 05:33:54;;;;;;;10.55;6.30;;;0.60;1.00;;;;;;5141475;27;20241;-81
2023/03/12 05:36:21;;;;;;;9.95;5.18;;;0.70;1.00;;;;;;5133857;27;20714;-82
2023/03/12 05:38:48;;;;;;;10.35;5.88;;;0.60;1.00;;;;;;5135135;27;20254;-81
2023/03/12 05:41:20;;;;;;;11.00;5.90;;;0.60;1.00;;;;;;5139311;27;20270;-82
2023/03/12 05:43:46;;;;;;;7.68;6.30;;;0.60;1.00;;;;;;5137028;27;20652;-81
2023/03/12 05:46:14;;;;;;;7.45;5.55;;;0.60;1.00;;;;;;5144051;27;20234;-81
2023/03/12 05:48:41;;;;;;;9.07;5.80;;;0.60;1.00;;;;;;5136908;27;20538;-82
2023/03/12 05:51:10;;;;;;;8.90;5.47;;;0.70;1.00;;;;;;5137316;27;20320;-82
2023/03/12 05:53:37;;;;;;;9.43;5.95;;;0.80;1.00;;;;;;5136065;27;20238;-80
2023/03/12 05:56:05;;;;;;;6.90;5.82;;;0.70;1.00;;;;;;5140654;27;20281;-79
2023/03/12 05:58:33;;;;;;;7.13;5.07;;;0.70;1.00;;;;;;5138263;27;20234;-80
2023/03/12 06:01:01;;;;;;;9.75;6.38;;;0.80;1.00;;;;;;5139569;27;20257;-81
2023/03/12 06:03:28;;;;;;;10.98;5.18;;;0.70;1.00;;;;;;5141895;27;20242;-82
2023/03/12 06:05:55;;;;;;;7.38;5.82;;;0.70;1.00;;;;;;5138643;27;20235;-81
2023/03/12 06:08:25;;;;;;;13.85;6.05;;;0.80;1.00;;;;;;5141227;27;20230;-81
2023/03/12 06:10:53;;;;;;;8.13;5.22;;;0.90;1.00;;;;;;5140328;27;20998;-81
2023/03/12 06:13:21;;;;;;;5.70;4.35;;;0.90;1.00;;;;;;5141125;27;20238;-81
2023/03/12 06:15:48;;;;;;;7.57;4.80;;;0.90;1.00;;;;;;5139919;27;20241;-80
2023/03/12 06:18:15;;;;;;;7.80;5.00;;;1.00;1.00;;;;;;5140270;27;21103;-80
2023/03/12 06:20:42;;;;;;;7.80;4.28;;;1.00;1.00;;;;;;5137541;27;20306;-80
2023/03/12 06:23:09;;;;;;;7.55;4.40;;;1.00;1.00;;;;;;5140682;27;20318;-79
2023/03/12 06:25:37;;;;;;;4.88;4.00;;;1.00;1.00;;;;;;5144987;27;20291;-80
2023/03/12 06:28:05;;;;;;;7.78;4.55;;;1.10;1.00;;;;;;5139408;27;20232;-79
2023/03/12 06:30:32;;;;;;;6.38;4.70;;;1.10;1.00;;;;;;5143274;27;20242;-81
2023/03/12 06:32:59;;;;;;;6.60;4.28;;;1.10;1.00;;;;;;5139304;27;20235;-80
2023/03/12 06:35:26;;;;;;;6.57;4.57;;;1.10;1.00;;;;;;5143157;27;20729;-80
2023/03/12 06:37:53;;;;;;;5.68;4.68;;;1.20;1.00;;;;;;5143426;27;20230;-80
2023/03/12 06:40:20;;;;;;;8.23;5.10;;;1.30;1.00;;;;;;5142354;27;20239;-82
2023/03/12 06:42:49;;;;;;;8.30;4.53;;;1.30;1.00;;;;;;5136167;27;20230;-81
2023/03/12 06:45:16;;;;;;;6.80;4.50;;;1.40;1.00;;;;;;5136604;27;20352;-80
2023/03/12 06:47:42;;;;;;;4.97;4.05;;;1.40;1.00;;;;;;5138817;27;20988;-81
2023/03/12 06:50:10;;;;;;;7.80;4.75;;;1.50;1.00;;;;;;5144234;27;20240;-80
2023/03/12 06:52:39;;;;;;;7.72;4.57;;;1.60;1.00;;;;;;5136039;27;20265;-81
2023/03/12 06:55:07;;;;;;;8.40;4.93;;;1.70;1.00;;;;;;5141392;27;20694;-81
2023/03/12 06:57:33;;;;;;;5.38;3.92;;;1.80;1.00;;;;;;5142058;27;20230;-80
2023/03/12 07:00:02;;;;;;;8.73;5.00;;;1.90;1.00;;;;;;5141327;27;20331;-81
2023/03/12 07:02:29;;;;;;;7.10;4.70;;;2.10;1.00;;;;;;5135016;27;20275;-80
2023/03/12 07:04:56;;;;;;;5.47;3.90;;;2.20;1.00;;;;;;5138560;27;20244;-79
2023/03/12 07:07:26;;;;;;;6.70;4.30;;;2.20;1.00;;;;;;5150249;27;20341;-85
2023/03/12 07:09:53;;;;;;;9.07;4.90;;;2.20;1.00;;;;;;5146066;27;21113;-85
2023/03/12 07:12:21;;;;;;;6.85;4.45;;;2.30;1.00;;;;;;5148866;27;20238;-84
2023/03/12 07:14:48;;;;;;;5.15;4.15;;;2.40;1.00;;;;;;5146373;27;20234;-84
2023/03/12 07:17:19;;;;;;;5.47;4.25;;;2.60;1.00;;;;;;5153495;27;20234;-84
2023/03/12 07:19:46;;;;;;;10.55;4.38;;;2.70;1.00;;;;;;5147925;27;20238;-85
2023/03/12 07:22:12;;;;;;;7.10;4.95;;;2.80;1.00;;;;;;5150777;27;20295;-83
2023/03/12 07:24:40;;;;;;;6.43;4.38;;;3.00;1.00;;;;;;5144288;27;20288;-84
2023/03/12 07:27:07;;;;;;;6.07;4.28;;;3.10;1.00;;;;;;5151295;27;20665;-85
2023/03/12 07:29:33;;;;;;;6.22;4.45;;;3.20;1.00;;;;;;5155946;27;20230;-85
2023/03/12 07:32:00;;;;;;;6.00;4.35;;;3.20;1.00;;;;;;5146479;27;20235;-83
2023/03/12 07:34:29;;;;;;;9.18;4.35;;;3.30;1.00;;;;;;5144803;27;20255;-83
2023/03/12 07:36:56;;;;;;;6.10;3.80;;;3.50;1.00;;;;;;5150467;27;20678;-83
2023/03/12 07:39:23;;;;;;;7.25;4.88;;;3.50;1.00;;;;;;5145744;27;20248;-84
2023/03/12 07:41:50;;;;;;;6.55;3.85;;;3.50;1.00;;;;;;5147396;27;20258;-83
2023/03/12 07:44:17;;;;;;;7.43;3.60;;;3.50;1.00;;;;;;5145628;27;20234;-82
2023/03/12 07:46:44;;;;;;;5.28;3.50;;;3.30;1.00;;;;;;5141861;27;20246;-81
2023/03/12 07:49:11;;;;;;;7.07;4.35;;;3.30;1.00;;;;;;5147955;27;20226;-83
2023/03/12 07:51:39;;;;;;;5.80;4.43;;;3.40;1.00;;;;;;5145979;27;20246;-84
2023/03/12 07:54:06;;;;;;;7.60;4.20;;;3.40;1.00;;;;;;5144675;27;20238;-82
2023/03/12 07:56:33;;;;;;;6.10;4.20;;;3.50;1.00;;;;;;5144490;27;20326;-84
2023/03/12 07:59:00;;;;;;;9.57;4.13;;;3.50;1.00;;;;;;5147863;27;20635;-83
2023/03/12 08:01:31;;;;;;;6.10;3.90;;;3.60;1.00;;;;;;5144985;27;20234;-83
2023/03/12 08:03:59;;;;;;;4.22;2.90;;;3.80;1.00;;;;;;5141449;27;20329;-84
2023/03/12 08:06:26;;;;;;;10.85;4.80;;;3.90;1.00;;;;;;5146528;27;20322;-82
2023/03/12 08:08:55;;;;;;;6.10;3.70;;;3.90;1.00;;;;;;5144474;27;21163;-84
2023/03/12 08:11:22;;;;;;;10.15;4.63;;;4.00;1.00;;;;;;5151383;27;20218;-85
2023/03/12 08:13:49;;;;;;;6.05;3.50;;;4.20;1.00;;;;;;5153526;27;20234;-84
2023/03/12 08:16:17;;;;;;;4.75;4.00;;;4.40;1.00;;;;;;5150824;27;20291;-84
2023/03/12 08:18:47;;;;;;;11.32;3.90;;;4.40;1.00;;;;;;5149968;27;21782;-85
2023/03/12 08:21:15;;;;;;;4.82;3.50;;;4.40;1.00;;;;;;5146202;27;20234;-84
2023/03/12 08:23:42;;;;;;;8.30;4.40;;;4.50;1.00;;;;;;5144591;27;20237;-82
2023/03/12 08:26:10;;;;;;;8.98;3.80;;;4.60;1.00;;;;;;5145610;27;20308;-82
2023/03/12 08:28:39;;;;;;;8.18;5.43;;;4.50;1.00;;;;;;5144024;27;20399;-84
2023/03/12 08:31:06;;;;;;;6.70;3.80;;;4.60;1.00;;;;;;5151179;27;20222;-83
2023/03/12 08:33:33;;;;;;;7.50;4.20;;;4.60;1.00;;;;;;5147562;27;20229;-83
2023/03/12 08:36:00;;;;;;;4.47;3.42;;;4.70;1.00;;;;;;5148999;27;20239;-83
2023/03/12 08:38:27;;;;;;;7.70;3.97;;;4.80;1.00;;;;;;5147176;27;20349;-85
2023/03/12 08:40:56;;;;;;;6.00;3.50;;;4.90;1.00;;;;;;5143687;27;20672;-84
2023/03/12 08:43:25;;;;;;;5.45;3.50;;;5.10;1.00;;;;;;5147177;27;20237;-85
2023/03/12 08:45:56;;;;;;;5.35;3.50;;;5.30;1.00;;;;;;5147910;27;20234;-85
2023/03/12 08:48:23;;;;;;;6.90;3.90;;;5.60;1.00;;;;;;5149003;27;20298;-83
2023/03/12 08:50:51;;;;;;;5.18;3.30;;;5.90;1.00;;;;;;5141035;27;20241;-81
2023/03/12 08:53:19;;;;;;;9.93;4.57;;;6.10;1.00;;;;;;5149875;27;20241;-84
2023/03/12 08:55:47;;;;;;;5.68;3.47;;;6.20;1.00;;;;;;5147217;27;20273;-84
2023/03/12 08:58:15;;;;;;;5.07;3.42;;;6.60;1.00;;;;;;5144756;27;20717;-82
2023/03/12 09:00:43;;;;;;;5.60;3.05;;;6.80;1.00;;;;;;5146740;27;20298;-83
2023/03/12 09:03:13;;;;;;;5.40;2.63;;;6.90;1.00;;;;;;5147223;27;20793;-86
2023/03/12 09:05:40;;;;;;;5.22;3.20;;;7.10;1.00;;;;;;5141084;27;20240;-85
2023/03/12 09:08:08;;;;;;;8.30;4.45;;;7.40;1.00;;;;;;5141252;27;20264;-83
2023/03/12 09:10:35;;;;;;;6.10;2.65;;;7.50;1.00;;;;;;5145796;27;20334;-85
2023/03/12 09:13:04;;;;;;;6.87;3.43;;;7.60;1.00;;;;;;5145209;27;20237;-84
2023/03/12 09:15:31;;;;;;;25.40;5.03;;;8.40;1.00;;;;;;5144572;27;20520;-83
2023/03/12 09:17:59;;;;;;;4.13;2.67;;;9.60;1.00;;;;;;5141610;27;20459;-85
2023/03/12 09:20:26;;;;;;;4.07;3.03;;;10.70;1.00;;;;;;5144079;27;20459;-85
2023/03/12 09:22:53;;;;;;;5.97;2.83;;;11.70;1.00;;;;;;5144217;27;20480;-87
2023/03/12 09:25:22;;;;;;;7.00;3.37;;;12.90;1.00;;;;;;5146299;27;20542;-86
2023/03/12 09:27:50;;;;;;;6.20;2.57;;;13.60;1.00;;;;;;5146622;27;20481;-85
2023/03/12 09:30:20;;;;;;;6.30;2.30;;;13.50;1.00;;;;;;5147885;27;20885;-86
2023/03/12 09:32:48;;;;;;;6.80;2.90;;;13.20;1.00;;;;;;5146807;27;20564;-85
2023/03/12 09:35:16;;;;;;;6.37;2.07;;;12.70;1.00;;;;;;5146816;27;20437;-86
2023/03/12 09:37:50;;;;;;;6.40;2.03;;;12.70;1.00;;;;;;5148450;27;20460;-86
2023/03/12 09:40:19;;;;;;;7.37;2.23;;;13.30;1.00;;;;;;5152557;27;20528;-86
2023/03/12 09:42:50;;;;;;;7.53;2.60;;;12.70;1.00;;;;;;5150771;27;20559;-85
2023/03/12 09:45:21;;;;;;;23.30;12.20;;;12.00;1.00;;;;;;5148765;27;20431;-86
2023/03/12 09:47:50;;;;;;;9.10;2.70;;;11.30;1.00;;;;;;5146615;27;20555;-86
2023/03/12 09:50:26;;;;;;;6.80;2.33;;;10.90;1.00;;;;;;5149450;27;20478;-86
2023/03/12 09:52:59;;;;;;;7.80;2.27;;;10.80;1.00;;;;;;5150791;27;21106;-86
2023/03/12 09:55:27;;;;;;;6.10;2.20;;;10.60;1.00;;;;;;5152201;27;20449;-86
2023/03/12 09:57:57;;;;;;;6.33;2.33;;;10.70;1.00;;;;;;5150664;27;20467;-86
2023/03/12 10:00:30;;;;;;;5.60;2.13;;;11.50;1.00;;;;;;5151628;27;20472;-86
2023/03/12 10:03:16;;;;;;;9.23;3.37;;;12.00;1.00;;;;;;5153292;27;20467;-86
2023/03/12 10:05:47;;;;;;;7.20;1.67;;;12.60;1.00;;;;;;5150422;27;20736;-87
2023/03/12 10:08:23;;;;;;;15.80;3.37;;;12.90;1.00;;;;;;5152550;27;20455;-86
2023/03/12 10:10:54;;;;;;;6.90;1.90;;;12.50;1.00;;;;;;5161510;27;20537;-86
2023/03/12 10:13:56;;;;;;;7.40;2.10;;;12.60;1.00;;;;;;5162885;27;20559;-86
2023/03/12 10:16:34;;;;;;;8.77;1.83;;;12.90;1.00;;;;;;5140051;27;20807;-86
2023/03/12 10:19:14;;;;;;;5.83;1.57;;;13.20;1.00;;;;;;5156001;27;20448;-85
2023/03/12 10:21:49;;;;;;;6.50;1.80;;;13.30;1.00;;;;;;5150907;27;21226;-85
2023/03/12 10:24:30;;;;;;;6.60;2.03;;;13.00;1.00;;;;;;5152334;27;20513;-86
2023/03/12 10:27:00;;;;;;;8.60;1.73;;;13.40;1.00;;;;;;5151378;27;20482;-87
2023/03/12 10:29:30;;;;;;;10.83;3.03;;;13.50;1.00;;;;;;5153325;27;20554;-87
2023/03/12 10:32:02;;;;;;;5.10;1.30;;;13.20;1.00;;;;;;5149687;27;20510;-85
2023/03/12 10:34:32;;;;;;;7.77;2.13;;;12.70;1.00;;;;;;5155379;27;20467;-85
2023/03/12 10:37:12;;;;;;;6.30;2.00;;;13.10;1.00;;;;;;5155331;27;21276;-88
2023/03/12 10:39:40;;;;;;;7.10;2.40;;;13.30;1.00;;;;;;5154849;27;20540;-85
2023/03/12 10:42:18;;;;;;;7.33;2.07;;;13.60;1.00;;;;;;5152533;27;20592;-86
2023/03/12 10:44:51;;;;;;;7.23;2.13;;;13.90;1.00;;;;;;5163362;27;20464;-86
2023/03/12 10:47:35;;;;;;;6.07;2.30;;;14.60;1.00;;;;;;5160057;27;20437;-87
2023/03/12 10:50:15;;;;;;;8.77;2.20;;;14.40;1.00;;;;;;5167718;27;20425;-87
2023/03/12 10:52:44;;;;;;;6.70;1.83;;;13.70;1.00;;;;;;5162499;27;20488;-85
2023/03/12 10:55:19;;;;;;;9.10;2.50;;;13.50;1.00;;;;;;5158379;27;20505;-84
2023/03/12 10:57:47;;;;;;;6.60;1.50;;;14.10;1.00;;;;;;5159959;27;20485;-89
2023/03/12 11:00:19;;;;;;;9.53;2.00;;;14.70;1.00;;;;;;5161738;27;20430;-88
2023/03/12 11:02:55;;;;;;;7.33;1.50;;;15.80;1.00;;;;;;5160254;27;20432;-88
2023/03/12 11:05:24;;;;;;;8.93;2.30;;;16.70;1.00;;;;;;5152674;27;20492;-81
2023/03/12 11:07:53;;;;;;;7.40;1.80;;;16.50;1.00;;;;;;5146774;27;20441;-83
2023/03/12 11:10:38;;;;;;;6.70;1.50;;;16.40;1.00;;;;;;5149151;27;20424;-81
2023/03/12 11:13:20;;;;;;;6.40;1.30;;;16.10;1.00;;;;;;5145715;27;20509;-81
2023/03/12 11:15:48;;;;;;;7.70;2.10;;;15.70;1.00;;;;;;5147169;27;20481;-82
2023/03/12 11:18:32;;;;;;;13.80;8.63;;;16.00;1.00;;;;;;5151675;27;20433;-82
2023/03/12 11:21:14;;;;;;;8.50;2.13;;;15.80;1.00;;;;;;5147568;27;20451;-82
2023/03/12 11:23:47;;;;;;;7.47;2.40;;;15.10;1.00;;;;;;5145357;27;20528;-83
2023/03/12 11:26:18;;;;;;;6.93;1.73;;;14.60;1.00;;;;;;5153952;27;20473;-81
2023/03/12 11:28:48;;;;;;;8.50;2.57;;;14.00;1.00;;;;;;5147378;27;20470;-81
2023/03/12 11:31:22;;;;;;;7.97;2.03;;;14.10;1.00;;;;;;5147179;27;20993;-81
2023/03/12 11:33:51;;;;;;;6.60;2.67;;;14.30;1.00;;;;;;5145538;27;20473;-82
2023/03/12 11:36:38;;;;;;;7.17;2.60;;;14.50;1.00;;;;;;5152003;27;20465;-81
2023/03/12 11:39:17;;;;;;;9.70;3.50;;;14.20;1.00;;;;;;5147891;27;20541;-82
2023/03/12 11:41:59;;;;;;;8.83;3.50;;;14.30;1.00;;;;;;5151342;27;20478;-82
2023/03/12 11:44:32;;;;;;;9.43;3.63;;;14.30;1.00;;;;;;5147087;27;20470;-82
2023/03/12 11:47:17;;;;;;;7.80;4.10;;;14.10;1.00;;;;;;5149715;27;20577;-81
2023/03/12 11:49:54;;;;;;;7.80;3.87;;;14.60;1.00;;;;;;5152022;27;20519;-80
2023/03/12 11:52:31;;;;;;;14.63;6.20;;;14.90;1.00;;;;;;5145888;27;20922;-81
2023/03/12 11:55:16;;;;;;;10.77;3.70;;;14.20;1.00;;;;;;5148041;27;20457;-82
2023/03/12 11:58:03;;;;;;;9.27;3.67;;;13.40;1.00;;;;;;5149762;27;20478;-82
2023/03/12 12:00:37;;;;;;;8.67;3.13;;;12.60;1.00;;;;;;5150836;27;20461;-81
2023/03/12 12:03:33;;;;;;;11.13;3.60;;;12.10;1.00;;;;;;5146025;27;20471;-81
2023/03/12 12:06:05;;;;;;;8.10;2.60;;;11.60;1.00;;;;;;5146839;27;20504;-82
2023/03/12 12:08:49;;;;;;;7.10;2.80;;;11.50;1.00;;;;;;5148435;27;20589;-82
2023/03/12 12:11:24;;;;;;;7.00;3.00;;;11.20;1.00;;;;;;5148155;27;20449;-82
2023/03/12 12:14:03;;;;;;;7.00;2.70;;;10.70;1.00;;;;;;5147681;27;20428;-82
2023/03/12 12:16:58;;;;;;;9.80;3.70;;;10.50;1.00;;;;;;5144164;27;20469;-81
2023/03/12 12:19:39;;;;;;;10.23;3.17;;;10.30;1.00;;;;;;5150255;27;20969;-81
2023/03/12 12:22:28;;;;;;;8.13;2.90;;;9.70;1.00;;;;;;5149078;27;20456;-82
2023/03/12 12:25:19;;;;;;;7.57;3.10;;;9.80;1.00;;;;;;5149173;27;20485;-82
2023/03/12 12:27:59;;;;;;;9.47;2.77;;;10.00;1.00;;;;;;5149697;27;20468;-82
2023/03/12 12:30:36;;;;;;;6.90;2.93;;;10.40;1.00;;;;;;5144140;27;20569;-81
2023/03/12 12:33:14;;;;;;;8.33;2.93;;;10.20;1.00;;;;;;5150340;27;20472;-81
2023/03/12 12:35:42;;;;;;;7.07;2.97;;;9.70;1.00;;;;;;5149447;27;20472;-84
2023/03/12 12:38:14;;;;;;;7.27;2.83;;;9.40;1.00;;;;;;5145716;27;21174;-83
2023/03/12 12:40:44;;;;;;;8.20;2.83;;;9.40;1.00;;;;;;5149493;27;20479;-81
2023/03/12 12:43:24;;;;;;;6.37;2.40;;;9.50;1.00;;;;;;5148950;27;20494;-82
2023/03/12 12:45:53;;;;;;;6.53;2.70;;;9.20;1.00;;;;;;5147757;27;21289;-81
2023/03/12 12:48:24;;;;;;;8.07;2.90;;;9.50;1.00;;;;;;5150059;27;20552;-82
2023/03/12 12:50:54;;;;;;;19.23;9.77;;;9.60;1.00;;;;;;5151435;27;20460;-82
2023/03/12 12:53:25;;;;;;;9.23;3.00;;;9.40;1.00;;;;;;5150117;27;21291;-81
2023/03/12 12:56:00;;;;;;;7.60;2.90;;;9.40;1.00;;;;;;5148845;27;20465;-81
2023/03/12 12:58:46;;;;;;;7.70;2.83;;;9.50;1.00;;;;;;5150849;27;20542;-82
2023/03/12 13:01:15;;;;;;;8.20;2.90;;;9.80;1.00;;;;;;5150720;27;21062;-82
2023/03/12 13:03:43;;;;;;;7.83;2.73;;;9.80;1.00;;;;;;5148318;27;20428;-81
2023/03/12 13:06:10;;;;;;;6.57;2.00;;;9.40;1.00;;;;;;5143819;27;21167;-82
2023/03/12 13:09:00;;;;;;;6.03;2.20;;;9.30;1.00;;;;;;5143757;27;20550;-82
2023/03/12 13:11:30;;;;;;;7.00;2.40;;;9.50;1.00;;;;;;5147705;27;20467;-82
2023/03/12 13:14:21;;;;;;;9.47;2.53;;;9.50;1.00;;;;;;5150779;27;20495;-82
2023/03/12 13:16:49;;;;;;;6.73;2.97;;;9.50;1.00;;;;;;5149727;27;20461;-80
2023/03/12 13:19:26;;;;;;;8.37;2.70;;;9.50;1.00;;;;;;5152477;27;21776;-82